KTMA/TMA METAR and TAF weather

Enter ICAO airport designator
Station Type Date Time Source
KTMA METAR 2018/12/13 22:15 UTC NOAA

KTMA 132215Z AUTO 00000KT 10SM OVC080 15/10 A3012 RMK AO2 T01460097


Station Type Date Time Source
KTMA Decoded METAR 2018/12/13 22:15 UTC NOAA

Station name not available
Dec 13, 2018 - 05:15 PM EST / 2018.12.13 2215 UTC
Wind: Calm:0
Visibility: 10 mile(s):0
Sky conditions: overcast
Temperature: 58.3 F (14.6 C)
Dew Point: 49.5 F (9.7 C)
Relative Humidity: 72%
Pressure (altimeter): 30.12 in. Hg (1019 hPa)
ob: KTMA 132215Z AUTO 00000KT 10SM OVC080 15/10 A3012 RMK AO2 T01460097
cycle: 22

Station Type Date Time Source
KTMA TAF UTC NOAA

Error!


Example: see airport list